createdAt,value
2023-05-14T00:00:47.531Z,13.51
2023-05-14T00:03:29.458Z,13.70
2023-05-14T00:05:56.874Z,13.69
2023-05-14T00:08:24.519Z,13.62
2023-05-14T00:10:52.354Z,13.48
2023-05-14T00:13:20.024Z,13.50
2023-05-14T00:15:47.339Z,13.45
2023-05-14T00:18:15.081Z,13.40
2023-05-14T00:20:42.696Z,13.26
2023-05-14T00:23:10.918Z,13.11
2023-05-14T00:25:38.184Z,13.04
2023-05-14T00:28:05.900Z,12.97
2023-05-14T00:30:33.302Z,12.94
2023-05-14T00:33:01.344Z,12.88
2023-05-14T00:35:28.786Z,12.79
2023-05-14T00:37:56.480Z,12.71
2023-05-14T00:40:27.252Z,12.59
2023-05-14T00:42:56.741Z,12.60
2023-05-14T00:45:24.052Z,12.55
2023-05-14T00:47:52.414Z,12.53
2023-05-14T00:50:21.400Z,12.54
2023-05-14T00:52:49.631Z,12.41
2023-05-14T00:55:17.140Z,12.34
2023-05-14T00:57:45.276Z,12.28
2023-05-14T01:00:13.418Z,12.25
2023-05-14T01:02:42.089Z,12.24
2023-05-14T01:05:09.804Z,12.22
2023-05-14T01:08:02.131Z,12.20
2023-05-14T01:10:39.188Z,12.10
2023-05-14T01:13:25.105Z,12.12
2023-05-14T01:15:56.123Z,11.97
2023-05-14T01:18:25.498Z,11.91
2023-05-14T01:20:54.961Z,11.62
2023-05-14T01:23:22.823Z,11.87
2023-05-14T01:25:50.361Z,11.77
2023-05-14T01:28:20.455Z,11.75
2023-05-14T01:31:06.804Z,11.70
2023-05-14T01:33:36.468Z,11.54
2023-05-14T01:36:04.901Z,11.67
2023-05-14T01:38:34.337Z,11.62
2023-05-14T01:41:02.832Z,11.57
2023-05-14T01:43:31.984Z,11.62
2023-05-14T01:45:59.392Z,11.63
2023-05-14T01:48:27.009Z,11.46
2023-05-14T01:50:55.343Z,11.48
2023-05-14T01:53:23.312Z,11.54
2023-05-14T01:55:50.688Z,11.44
2023-05-14T01:58:18.521Z,11.38
2023-05-14T02:00:46.018Z,11.47
2023-05-14T02:03:14.130Z,11.42
2023-05-14T02:05:41.527Z,11.37
2023-05-14T02:08:09.164Z,11.27
2023-05-14T02:10:36.473Z,11.32
2023-05-14T02:13:04.845Z,11.34
2023-05-14T02:15:32.100Z,11.26
2023-05-14T02:17:59.691Z,11.26
2023-05-14T02:20:27.561Z,11.28
2023-05-14T02:22:55.310Z,11.20
2023-05-14T02:25:22.687Z,11.21
2023-05-14T02:27:50.860Z,11.22
2023-05-14T02:30:18.229Z,11.12
2023-05-14T02:32:46.220Z,11.16
2023-05-14T02:35:13.673Z,11.14
2023-05-14T02:37:41.315Z,11.16
2023-05-14T02:40:09.584Z,11.16
2023-05-14T02:42:37.522Z,11.18
2023-05-14T02:45:06.563Z,11.16
2023-05-14T02:47:36.895Z,11.16
2023-05-14T02:50:06.601Z,11.23
2023-05-14T02:52:34.389Z,11.13
2023-05-14T02:55:02.267Z,11.20
2023-05-14T02:57:29.867Z,11.30
2023-05-14T02:59:57.181Z,11.32
2023-05-14T03:02:25.617Z,11.34
2023-05-14T03:04:53.756Z,11.22
2023-05-14T03:07:21.482Z,11.27
2023-05-14T03:09:48.775Z,11.32
2023-05-14T03:12:16.428Z,11.29
2023-05-14T03:14:44.400Z,11.32
2023-05-14T03:17:14.666Z,11.31
2023-05-14T03:19:41.942Z,11.31
2023-05-14T03:22:09.690Z,11.36
2023-05-14T03:24:40.272Z,11.34
2023-05-14T03:27:07.950Z,11.25
2023-05-14T03:29:35.216Z,11.16
2023-05-14T03:32:02.877Z,11.25
2023-05-14T03:34:30.376Z,11.30
2023-05-14T03:36:58.007Z,11.20
2023-05-14T03:39:25.256Z,11.16
2023-05-14T03:41:53.045Z,11.17
2023-05-14T03:44:20.493Z,11.26
2023-05-14T03:46:48.493Z,11.32
2023-05-14T03:49:15.876Z,11.28
2023-05-14T03:51:43.585Z,11.11
2023-05-14T03:54:10.956Z,11.18
2023-05-14T03:56:38.759Z,10.99
2023-05-14T03:59:06.075Z,11.15
2023-05-14T04:01:33.764Z,11.22
2023-05-14T04:04:01.230Z,11.25
2023-05-14T04:06:29.077Z,11.18
2023-05-14T04:08:56.443Z,11.17
2023-05-14T04:11:24.065Z,11.18
2023-05-14T04:13:51.469Z,11.17
2023-05-14T04:16:19.235Z,11.21
2023-05-14T04:18:46.816Z,11.22
2023-05-14T04:21:16.762Z,11.21
2023-05-14T04:23:44.246Z,11.21
2023-05-14T04:26:11.848Z,11.15
2023-05-14T04:28:39.280Z,11.22
2023-05-14T04:31:07.270Z,11.13
2023-05-14T04:33:34.568Z,11.14
2023-05-14T04:36:02.224Z,11.12
2023-05-14T04:38:29.568Z,11.02
2023-05-14T04:40:57.229Z,11.02
2023-05-14T04:43:24.781Z,11.07
2023-05-14T04:45:52.923Z,11.01
2023-05-14T04:48:21.038Z,10.91
2023-05-14T04:50:48.797Z,10.93
2023-05-14T04:53:16.094Z,10.95
2023-05-14T04:55:44.022Z,10.97
2023-05-14T04:58:11.376Z,11.01
2023-05-14T05:00:40.287Z,11.02
2023-05-14T05:03:07.974Z,11.03
2023-05-14T05:05:35.683Z,11.05
2023-05-14T05:08:03.024Z,11.12
2023-05-14T05:10:30.693Z,11.07
2023-05-14T05:12:58.031Z,10.99
2023-05-14T05:15:26.668Z,10.97
2023-05-14T05:17:54.271Z,11.00
2023-05-14T05:20:22.327Z,11.01
2023-05-14T05:22:49.889Z,11.00
2023-05-14T05:25:17.519Z,10.99
2023-05-14T05:27:44.884Z,11.06
2023-05-14T05:30:12.821Z,11.12
2023-05-14T05:32:40.204Z,11.02
2023-05-14T05:35:08.237Z,11.10
2023-05-14T05:37:35.778Z,10.98
2023-05-14T05:40:07.316Z,11.00
2023-05-14T05:42:34.960Z,10.96
2023-05-14T05:45:02.528Z,10.94
2023-05-14T05:47:30.441Z,10.95
2023-05-14T05:49:58.050Z,11.01
2023-05-14T05:52:25.417Z,10.99
2023-05-14T05:54:53.034Z,11.16
2023-05-14T05:57:22.684Z,11.12
2023-05-14T05:59:51.304Z,11.12
2023-05-14T06:02:19.895Z,11.05
2023-05-14T06:04:47.664Z,11.04
2023-05-14T06:07:16.130Z,11.12
2023-05-14T06:09:43.709Z,11.16
2023-05-14T06:12:11.286Z,11.12
2023-05-14T06:14:38.848Z,11.01
2023-05-14T06:17:06.178Z,11.07
2023-05-14T06:19:34.305Z,11.02
2023-05-14T06:22:05.430Z,11.11
2023-05-14T06:24:33.652Z,11.00
2023-05-14T06:27:00.991Z,11.11
2023-05-14T06:29:29.713Z,11.12
2023-05-14T06:32:03.924Z,11.24
2023-05-14T06:34:32.050Z,11.35
2023-05-14T06:37:00.579Z,11.52
2023-05-14T06:39:28.343Z,11.52
2023-05-14T06:41:59.281Z,11.68
2023-05-14T06:44:30.915Z,11.77
2023-05-14T06:47:01.131Z,11.82
2023-05-14T06:49:29.649Z,11.99
2023-05-14T06:52:00.123Z,12.03
2023-05-14T06:54:32.084Z,11.93
2023-05-14T06:57:01.298Z,11.77
2023-05-14T06:59:30.951Z,11.68
2023-05-14T07:02:00.673Z,11.60
2023-05-14T07:04:30.067Z,11.57
2023-05-14T07:06:58.690Z,11.60
2023-05-14T07:09:31.999Z,11.52
2023-05-14T07:12:02.004Z,11.48
2023-05-14T07:14:31.171Z,11.41
2023-05-14T07:16:58.772Z,11.44
2023-05-14T07:19:30.581Z,11.38
2023-05-14T07:21:58.575Z,11.49
2023-05-14T07:24:30.084Z,11.47
2023-05-14T07:26:58.646Z,11.46
2023-05-14T07:29:28.705Z,11.51
2023-05-14T07:31:57.184Z,11.49
2023-05-14T07:34:31.893Z,11.55
2023-05-14T07:37:03.774Z,11.50
2023-05-14T07:39:37.114Z,11.51
2023-05-14T07:42:09.026Z,11.55
2023-05-14T07:44:40.961Z,11.51
2023-05-14T07:47:09.082Z,11.57
2023-05-14T07:49:40.394Z,11.44
2023-05-14T07:52:11.252Z,11.63
2023-05-14T07:54:43.245Z,11.69
2023-05-14T07:57:10.836Z,11.75
2023-05-14T07:59:38.733Z,11.75
2023-05-14T08:02:14.353Z,11.82
2023-05-14T08:04:47.610Z,11.84
2023-05-14T08:07:15.427Z,11.92
2023-05-14T08:09:56.508Z,11.92
2023-05-14T08:12:30.611Z,11.96
2023-05-14T08:15:03.430Z,12.13
2023-05-14T08:17:32.512Z,12.13
2023-05-14T08:20:10.220Z,12.11
2023-05-14T08:22:40.575Z,12.08
2023-05-14T08:25:14.407Z,12.13
2023-05-14T08:27:41.960Z,12.11
2023-05-14T08:30:11.966Z,12.24
2023-05-14T08:32:41.028Z,12.24
2023-05-14T08:35:11.688Z,12.32
2023-05-14T08:37:39.224Z,12.45
2023-05-14T08:40:13.023Z,12.53
2023-05-14T08:43:09.800Z,12.44
2023-05-14T08:45:45.472Z,12.62
2023-05-14T08:48:20.232Z,12.69
2023-05-14T08:50:48.921Z,12.72
2023-05-14T08:53:17.996Z,12.72
2023-05-14T08:55:54.374Z,12.73
2023-05-14T08:58:26.009Z,13.00
2023-05-14T09:00:57.693Z,12.90
2023-05-14T09:03:29.390Z,12.98
2023-05-14T09:06:00.654Z,13.07
2023-05-14T09:08:37.413Z,13.17
2023-05-14T09:11:05.948Z,13.22
2023-05-14T09:13:39.292Z,13.25
2023-05-14T09:16:14.196Z,13.31
2023-05-14T09:18:45.787Z,13.40
2023-05-14T09:21:16.193Z,13.44
2023-05-14T09:23:49.981Z,13.39
2023-05-14T09:26:23.966Z,13.68
2023-05-14T09:28:54.766Z,13.66
2023-05-14T09:31:22.986Z,13.96
2023-05-14T09:33:52.802Z,14.09
2023-05-14T09:36:20.504Z,14.36
2023-05-14T09:38:47.902Z,14.59
2023-05-14T09:41:16.493Z,14.64
2023-05-14T09:43:48.879Z,14.73
2023-05-14T09:46:17.417Z,14.62
2023-05-14T09:48:46.818Z,14.45
2023-05-14T09:51:21.202Z,14.39
2023-05-14T09:53:49.426Z,14.64
2023-05-14T09:56:27.910Z,14.78
2023-05-14T09:58:59.356Z,15.04
2023-05-14T10:01:35.771Z,15.40
2023-05-14T10:04:10.264Z,15.35
2023-05-14T10:06:43.235Z,15.52
2023-05-14T10:09:14.150Z,15.41
2023-05-14T10:11:50.360Z,15.56
2023-05-14T10:14:26.185Z,15.58
2023-05-14T10:16:56.555Z,15.54
2023-05-14T10:19:25.939Z,15.73
2023-05-14T10:22:05.354Z,15.73
2023-05-14T10:24:33.943Z,16.01
2023-05-14T10:27:02.536Z,16.26
2023-05-14T10:29:35.907Z,16.70
2023-05-14T10:32:14.100Z,16.68
2023-05-14T10:34:46.607Z,17.01
2023-05-14T10:37:22.950Z,16.81
2023-05-14T10:40:10.265Z,16.69
2023-05-14T10:42:43.727Z,16.41
2023-05-14T10:45:16.115Z,16.33
2023-05-14T10:47:51.040Z,16.69
2023-05-14T10:50:24.583Z,16.80
2023-05-14T10:52:57.310Z,16.86
2023-05-14T10:55:25.747Z,17.02
2023-05-14T10:58:01.698Z,16.88
2023-05-14T11:00:34.203Z,17.20
2023-05-14T11:03:10.346Z,16.97
2023-05-14T11:05:41.701Z,16.79
2023-05-14T11:08:12.834Z,17.03
2023-05-14T11:10:47.473Z,17.08
2023-05-14T11:13:38.304Z,17.66
2023-05-14T11:16:23.757Z,17.74
2023-05-14T11:19:15.558Z,18.37
2023-05-14T11:21:45.523Z,18.24
2023-05-14T11:24:36.611Z,18.35
2023-05-14T11:27:12.192Z,18.06
2023-05-14T11:29:49.455Z,18.03
2023-05-14T11:32:20.603Z,17.82
2023-05-14T11:34:50.611Z,17.94
2023-05-14T11:37:26.261Z,17.84
2023-05-14T11:39:56.029Z,17.73
2023-05-14T11:42:26.078Z,18.01
2023-05-14T11:44:58.131Z,17.96
2023-05-14T11:47:28.894Z,18.05
2023-05-14T11:50:01.606Z,18.27
2023-05-14T11:52:35.404Z,18.50
2023-05-14T11:55:13.547Z,18.55
2023-05-14T11:57:47.672Z,18.92
2023-05-14T12:00:25.903Z,19.06
2023-05-14T12:02:58.966Z,18.95
2023-05-14T12:05:32.946Z,19.11
2023-05-14T12:08:05.324Z,19.42
2023-05-14T12:10:42.940Z,18.77
2023-05-14T12:13:10.510Z,19.29
2023-05-14T12:15:48.648Z,19.27
2023-05-14T12:18:24.564Z,19.21
2023-05-14T12:20:53.016Z,19.13
2023-05-14T12:23:28.266Z,19.56
2023-05-14T12:25:56.484Z,19.45
2023-05-14T12:28:29.536Z,19.24
2023-05-14T12:30:58.799Z,19.19
2023-05-14T12:33:28.080Z,19.21
2023-05-14T12:36:19.853Z,19.66
2023-05-14T12:38:52.340Z,19.37
2023-05-14T12:41:24.043Z,19.08
2023-05-14T12:43:52.869Z,19.14
2023-05-14T12:46:22.311Z,19.19
2023-05-14T12:48:58.015Z,19.34
2023-05-14T12:51:31.719Z,19.62
2023-05-14T12:53:59.761Z,19.81
2023-05-14T12:56:32.759Z,19.53
2023-05-14T12:59:09.756Z,19.78
2023-05-14T13:01:58.414Z,19.43
2023-05-14T13:04:33.238Z,19.77
2023-05-14T13:07:08.118Z,20.01
2023-05-14T13:12:25.988Z,20.03
2023-05-14T13:14:55.137Z,20.15
2023-05-14T13:17:24.681Z,19.94
2023-05-14T13:19:59.217Z,20.10
2023-05-14T13:22:31.254Z,20.31
2023-05-14T13:25:07.367Z,20.38
2023-05-14T13:27:43.956Z,20.13
2023-05-14T13:30:22.504Z,19.78
2023-05-14T13:32:56.328Z,19.74
2023-05-14T13:35:32.211Z,19.89
2023-05-14T13:38:01.345Z,20.03
2023-05-14T13:40:45.417Z,19.95
2023-05-14T13:43:39.884Z,19.92
2023-05-14T13:46:21.912Z,19.88
2023-05-14T13:48:53.216Z,19.33
2023-05-14T13:51:27.930Z,19.49
2023-05-14T13:53:56.996Z,19.46
2023-05-14T13:56:36.153Z,19.44
2023-05-14T13:59:04.226Z,19.70
2023-05-14T14:01:32.166Z,19.36
2023-05-14T14:04:02.510Z,19.27
2023-05-14T14:06:34.957Z,18.96
2023-05-14T14:09:03.149Z,18.97
2023-05-14T14:11:30.534Z,18.73
2023-05-14T14:13:58.933Z,18.81
2023-05-14T14:16:27.711Z,18.77
2023-05-14T14:19:02.876Z,18.73
2023-05-14T14:21:35.443Z,18.91
2023-05-14T14:24:06.667Z,18.90
2023-05-14T14:26:36.657Z,18.99
2023-05-14T14:29:04.334Z,18.95
2023-05-14T14:31:31.731Z,18.69
2023-05-14T14:33:59.548Z,18.64
2023-05-14T14:36:27.100Z,18.50
2023-05-14T14:38:54.749Z,18.61
2023-05-14T14:41:22.507Z,18.38
2023-05-14T14:43:50.250Z,18.30
2023-05-14T14:46:17.866Z,18.21
2023-05-14T14:48:49.061Z,18.01
2023-05-14T14:51:18.217Z,18.04
2023-05-14T14:53:46.091Z,18.14
2023-05-14T14:56:18.595Z,18.29
2023-05-14T14:58:46.377Z,18.29
2023-05-14T15:01:14.285Z,18.55
2023-05-14T15:03:42.903Z,18.55
2023-05-14T15:06:11.262Z,18.62
2023-05-14T15:08:38.977Z,18.58
2023-05-14T15:11:09.949Z,18.93
2023-05-14T15:13:44.930Z,18.60
2023-05-14T15:16:13.358Z,18.39
2023-05-14T15:18:42.156Z,18.15
2023-05-14T15:21:10.928Z,17.95
2023-05-14T15:23:38.969Z,17.55
2023-05-14T15:26:06.292Z,17.57
2023-05-14T15:28:34.015Z,17.33
2023-05-14T15:31:02.732Z,17.25
2023-05-14T15:33:31.167Z,17.21
2023-05-14T15:36:03.288Z,17.18
2023-05-14T15:38:31.491Z,17.08
2023-05-14T15:40:59.112Z,17.12
2023-05-14T15:43:27.556Z,17.12
2023-05-14T15:45:55.012Z,17.11
2023-05-14T15:48:22.759Z,17.21
2023-05-14T15:50:51.724Z,17.30
2023-05-14T15:53:21.796Z,17.28
2023-05-14T15:55:49.330Z,17.28
2023-05-14T15:58:16.948Z,17.09
2023-05-14T16:00:46.617Z,17.03
2023-05-14T16:03:14.584Z,17.07
2023-05-14T16:05:42.941Z,17.19
2023-05-14T16:08:10.643Z,17.17
2023-05-14T16:10:37.971Z,17.10
2023-05-14T16:13:05.646Z,17.08
2023-05-14T16:15:33.216Z,16.98
2023-05-14T16:18:01.224Z,17.04
2023-05-14T16:20:29.104Z,16.96
2023-05-14T16:22:57.029Z,16.77
2023-05-14T16:25:24.700Z,16.73
2023-05-14T16:27:53.240Z,16.59
2023-05-14T16:30:20.649Z,16.48
2023-05-14T16:32:57.466Z,16.57
2023-05-14T16:35:31.382Z,16.63
2023-05-14T16:38:04.955Z,16.61
2023-05-14T16:40:35.242Z,16.61
2023-05-14T16:43:28.970Z,16.48
2023-05-14T16:45:57.966Z,16.45
2023-05-14T16:48:35.075Z,16.46
2023-05-14T16:51:04.949Z,16.43
2023-05-14T16:53:36.534Z,16.36
2023-05-14T16:56:11.371Z,16.26
2023-05-14T16:58:39.834Z,16.33
2023-05-14T17:01:11.529Z,16.21
2023-05-14T17:03:44.480Z,16.11
2023-05-14T17:06:13.876Z,16.10
2023-05-14T17:09:03.057Z,16.02
2023-05-14T17:11:32.952Z,15.98
2023-05-14T17:14:06.204Z,15.93
2023-05-14T17:16:34.092Z,15.88
2023-05-14T17:19:05.028Z,15.89
2023-05-14T17:21:34.399Z,15.88
2023-05-14T17:24:06.630Z,15.83
2023-05-14T17:26:38.191Z,15.74
2023-05-14T17:29:05.727Z,15.71
2023-05-14T17:31:33.369Z,15.68
2023-05-14T17:34:00.968Z,15.70
2023-05-14T17:36:28.737Z,15.64
2023-05-14T17:38:56.039Z,15.67
2023-05-14T17:41:23.728Z,15.66
2023-05-14T17:43:52.642Z,15.64
2023-05-14T17:46:20.298Z,15.57
2023-05-14T17:48:50.655Z,15.61
2023-05-14T17:51:21.160Z,15.58
2023-05-14T17:53:51.502Z,15.62
2023-05-14T17:56:21.140Z,15.54
2023-05-14T17:58:51.095Z,15.53
2023-05-14T18:01:19.291Z,15.56
2023-05-14T18:03:46.990Z,15.45
2023-05-14T18:06:15.654Z,15.42
2023-05-14T18:08:43.068Z,15.39
2023-05-14T18:11:12.814Z,15.41
2023-05-14T18:13:42.929Z,15.36
2023-05-14T18:16:10.701Z,15.31
2023-05-14T18:18:38.995Z,15.29
2023-05-14T18:21:07.451Z,15.18
2023-05-14T18:24:01.668Z,15.28
2023-05-14T18:26:34.375Z,15.22
2023-05-14T18:29:04.782Z,15.14
2023-05-14T18:31:32.605Z,15.15
2023-05-14T18:33:59.949Z,15.14
2023-05-14T18:36:28.497Z,15.14
2023-05-14T18:38:56.190Z,15.16
2023-05-14T18:41:24.136Z,15.14
2023-05-14T18:43:51.652Z,15.13
2023-05-14T18:46:19.537Z,15.13
2023-05-14T18:48:46.870Z,15.18
2023-05-14T18:51:14.463Z,15.04
2023-05-14T18:53:41.814Z,15.11
2023-05-14T18:56:09.792Z,15.15
2023-05-14T18:58:39.504Z,15.13
2023-05-14T19:01:26.089Z,15.07
2023-05-14T19:03:54.923Z,15.18
2023-05-14T19:06:25.842Z,15.15
2023-05-14T19:08:53.213Z,15.13
2023-05-14T19:11:20.805Z,15.11
2023-05-14T19:13:49.699Z,15.06
2023-05-14T19:16:19.109Z,15.02
2023-05-14T19:18:46.491Z,15.05
2023-05-14T19:21:15.565Z,15.01
2023-05-14T19:23:45.678Z,14.98
2023-05-14T19:26:16.027Z,14.94
2023-05-14T19:28:45.893Z,14.90
2023-05-14T19:31:16.100Z,14.92
2023-05-14T19:33:43.713Z,14.94
2023-05-14T19:36:12.919Z,14.86
2023-05-14T19:38:40.537Z,14.83
2023-05-14T19:41:08.261Z,14.84
2023-05-14T19:43:35.667Z,14.88
2023-05-14T19:46:04.462Z,14.94
2023-05-14T19:48:33.876Z,14.92
2023-05-14T19:51:02.656Z,14.94
2023-05-14T19:53:30.510Z,14.98
2023-05-14T19:55:59.378Z,15.00
2023-05-14T19:58:28.877Z,14.99
2023-05-14T20:01:00.919Z,14.96
2023-05-14T20:03:47.304Z,15.03
2023-05-14T20:06:49.862Z,14.96
2023-05-14T20:09:20.257Z,14.95
2023-05-14T20:11:47.655Z,14.90
2023-05-14T20:14:15.894Z,14.89
2023-05-14T20:16:47.199Z,14.91
2023-05-14T20:19:15.156Z,14.90
2023-05-14T20:21:43.633Z,14.93
2023-05-14T20:24:13.699Z,14.95
2023-05-14T20:26:41.244Z,14.93
2023-05-14T20:29:14.532Z,14.87
2023-05-14T20:31:45.674Z,14.93
2023-05-14T20:34:46.738Z,14.87
2023-05-14T20:37:25.102Z,14.84
2023-05-14T20:39:55.884Z,14.85
2023-05-14T20:42:27.895Z,14.83
2023-05-14T20:45:00.688Z,14.83
2023-05-14T20:47:44.554Z,14.73
2023-05-14T20:50:23.245Z,14.86
2023-05-14T20:52:54.622Z,14.84
2023-05-14T20:55:33.231Z,14.85
2023-05-14T20:58:04.250Z,14.86
2023-05-14T21:00:35.800Z,14.86
2023-05-14T21:03:05.276Z,14.86
2023-05-14T21:05:39.125Z,14.90
2023-05-14T21:08:10.262Z,14.85
2023-05-14T21:10:44.237Z,14.86
2023-05-14T21:13:13.580Z,14.89
2023-05-14T21:15:44.072Z,14.93
2023-05-14T21:18:17.041Z,14.91
2023-05-14T21:20:48.870Z,14.90
2023-05-14T21:23:16.438Z,14.92
2023-05-14T21:25:45.967Z,14.92
2023-05-14T21:28:17.372Z,14.90
2023-05-14T21:30:48.697Z,14.97
2023-05-14T21:33:17.487Z,14.95
2023-05-14T21:36:05.851Z,14.98
2023-05-14T21:38:34.014Z,14.97
2023-05-14T21:41:03.208Z,14.92
2023-05-14T21:43:31.849Z,14.90
2023-05-14T21:45:59.242Z,14.90
2023-05-14T21:48:27.030Z,14.83
2023-05-14T21:50:54.805Z,14.88
2023-05-14T21:53:22.599Z,14.82
2023-05-14T21:55:50.183Z,14.86
2023-05-14T21:58:17.996Z,14.87
2023-05-14T22:00:45.573Z,14.86
2023-05-14T22:03:13.639Z,14.81
2023-05-14T22:05:41.003Z,14.81
2023-05-14T22:08:08.581Z,14.75
2023-05-14T22:10:35.882Z,14.74
2023-05-14T22:13:03.478Z,14.76
2023-05-14T22:15:30.832Z,14.76
2023-05-14T22:17:58.498Z,14.79
2023-05-14T22:20:25.867Z,14.72
2023-05-14T22:22:53.578Z,14.66
2023-05-14T22:25:24.332Z,14.63
2023-05-14T22:27:52.907Z,14.63
2023-05-14T22:30:20.280Z,14.61
2023-05-14T22:32:48.077Z,14.55
2023-05-14T22:35:15.622Z,14.46
2023-05-14T22:37:44.868Z,14.47
2023-05-14T22:40:13.804Z,14.38
2023-05-14T22:42:41.586Z,14.30
2023-05-14T22:45:09.497Z,14.26
2023-05-14T22:47:38.373Z,14.27
2023-05-14T22:50:13.784Z,14.21
2023-05-14T22:52:42.620Z,14.21
2023-05-14T22:55:10.120Z,14.22
2023-05-14T22:57:38.202Z,14.24
2023-05-14T23:00:07.439Z,14.24
2023-05-14T23:02:35.375Z,14.32
2023-05-14T23:05:02.784Z,14.38
2023-05-14T23:07:30.516Z,14.38
2023-05-14T23:09:57.824Z,14.41
2023-05-14T23:12:27.752Z,14.44
2023-05-14T23:14:55.217Z,14.50
2023-05-14T23:17:22.951Z,14.49
2023-05-14T23:19:50.400Z,14.55
2023-05-14T23:22:18.053Z,14.63
2023-05-14T23:24:45.623Z,14.67
2023-05-14T23:27:14.013Z,14.69
2023-05-14T23:29:41.419Z,14.70
2023-05-14T23:32:09.350Z,14.69
2023-05-14T23:34:36.865Z,14.69
2023-05-14T23:37:04.880Z,14.67
2023-05-14T23:39:32.972Z,14.71
2023-05-14T23:42:00.725Z,14.75
2023-05-14T23:44:29.578Z,14.78
2023-05-14T23:46:57.407Z,14.79
2023-05-14T23:49:24.902Z,14.73
2023-05-14T23:51:52.614Z,14.77
2023-05-14T23:54:19.927Z,14.82
2023-05-14T23:56:47.363Z,14.77
2023-05-14T23:59:15.142Z,14.74
